Time;durP1;ratioP1;P1;durP2;ratioP2;P2;SDS_P1;SDS_P2;PMS_P1;PMS_P2;Temp;Humidity;BMP_temperature;BMP_pressure;BME280_temperature;BME280_humidity;BME280_pressure;Samples;Min_cycle;Max_cycle;Signal;HPM_P1;HPM_P2
2023/12/19 00:01:20;;;;;;;14.35;7.43;;;10.40;99.90;;;;;;5131735;27;20070;-77
2023/12/19 00:03:46;;;;;;;11.20;7.05;;;10.40;99.90;;;;;;5130582;27;20027;-77
2023/12/19 00:06:11;;;;;;;6.28;5.45;;;10.40;99.90;;;;;;5130888;27;20072;-77
2023/12/19 00:08:37;;;;;;;7.10;5.47;;;10.40;99.90;;;;;;5130694;27;20050;-77
2023/12/19 00:11:03;;;;;;;8.15;5.85;;;10.40;99.90;;;;;;5131660;27;20034;-77
2023/12/19 00:13:29;;;;;;;5.93;5.10;;;10.40;99.90;;;;;;5130956;27;20447;-77
2023/12/19 00:15:55;;;;;;;6.30;5.47;;;10.40;99.90;;;;;;5131396;27;20069;-78
2023/12/19 00:18:21;;;;;;;5.82;5.10;;;10.40;99.90;;;;;;5131337;27;20019;-77
2023/12/19 00:20:47;;;;;;;10.55;5.43;;;10.40;99.90;;;;;;5130916;27;20046;-78
2023/12/19 00:23:12;;;;;;;5.05;4.55;;;10.40;99.90;;;;;;5131418;27;20023;-78
2023/12/19 00:25:38;;;;;;;5.72;4.80;;;10.40;99.90;;;;;;5131055;28;20024;-79
2023/12/19 00:28:04;;;;;;;6.20;5.57;;;10.40;99.90;;;;;;5132473;28;20023;-78
2023/12/19 00:30:30;;;;;;;5.80;4.97;;;10.40;99.90;;;;;;5131323;28;20027;-78
2023/12/19 00:32:56;;;;;;;5.35;4.85;;;10.40;99.90;;;;;;5132169;28;20080;-78
2023/12/19 00:35:23;;;;;;;7.10;5.20;;;10.40;99.90;;;;;;5132193;28;20119;-78
2023/12/19 00:37:49;;;;;;;5.10;4.60;;;10.40;99.90;;;;;;5132142;28;20026;-78
2023/12/19 00:40:14;;;;;;;5.22;4.72;;;10.40;99.90;;;;;;5131853;28;20031;-78
2023/12/19 00:42:41;;;;;;;6.65;4.13;;;10.40;99.90;;;;;;5131292;28;20382;-78
2023/12/19 00:45:08;;;;;;;4.30;3.90;;;10.40;99.90;;;;;;5131893;28;20027;-77
2023/12/19 00:47:33;;;;;;;5.95;4.32;;;10.40;99.90;;;;;;5113160;28;20079;-77
2023/12/19 00:49:59;;;;;;;6.45;4.20;;;10.30;99.90;;;;;;5131544;28;20102;-77
2023/12/19 00:52:27;;;;;;;4.55;3.75;;;10.40;99.90;;;;;;5113227;28;20499;-78
2023/12/19 00:54:53;;;;;;;3.92;3.40;;;10.40;99.90;;;;;;5131830;28;20119;-77
2023/12/19 00:57:18;;;;;;;4.40;4.00;;;10.30;99.90;;;;;;5131864;28;20031;-78
2023/12/19 00:59:44;;;;;;;5.50;3.78;;;10.40;99.90;;;;;;5131131;27;20046;-78
2023/12/19 01:02:10;;;;;;;6.00;4.50;;;10.30;99.90;;;;;;5131603;28;20019;-77
2023/12/19 01:04:36;;;;;;;7.88;5.40;;;10.20;99.90;;;;;;5133370;27;20055;-78
2023/12/19 01:07:02;;;;;;;6.63;5.10;;;10.30;99.90;;;;;;5135194;27;20110;-78
2023/12/19 01:09:27;;;;;;;7.38;5.18;;;10.20;99.90;;;;;;5134904;27;20115;-78
2023/12/19 01:11:53;;;;;;;5.40;4.90;;;10.20;99.90;;;;;;5135068;27;20019;-78
2023/12/19 01:14:19;;;;;;;6.15;4.40;;;10.20;99.90;;;;;;5135323;27;20413;-78
2023/12/19 01:16:45;;;;;;;4.85;4.30;;;10.20;99.90;;;;;;5134370;27;20253;-79
2023/12/19 01:19:10;;;;;;;7.22;3.60;;;10.20;99.90;;;;;;5134837;27;20422;-78
2023/12/19 01:21:37;;;;;;;7.43;4.72;;;10.10;99.90;;;;;;5134369;27;20428;-78
2023/12/19 01:24:03;;;;;;;7.40;4.20;;;10.10;99.90;;;;;;5134454;27;20451;-78
2023/12/19 01:26:34;;;;;;;4.13;3.22;;;10.10;99.90;;;;;;5134202;27;20024;-77
2023/12/19 01:29:00;;;;;;;4.70;3.05;;;10.10;99.90;;;;;;5134704;27;20066;-78
2023/12/19 01:31:26;;;;;;;3.75;3.28;;;10.00;99.90;;;;;;5134158;27;20083;-77
2023/12/19 01:33:52;;;;;;;5.00;3.47;;;10.00;99.90;;;;;;5116023;27;20034;-77
2023/12/19 01:36:18;;;;;;;5.20;3.08;;;10.10;99.90;;;;;;5134852;27;20030;-77
2023/12/19 01:38:43;;;;;;;5.15;3.30;;;10.10;99.90;;;;;;5134436;27;20023;-77
2023/12/19 01:41:09;;;;;;;5.85;3.38;;;10.10;99.90;;;;;;5135388;27;20152;-77
2023/12/19 01:43:35;;;;;;;4.35;3.10;;;10.10;99.90;;;;;;5134752;27;20042;-78
2023/12/19 01:46:00;;;;;;;5.18;3.15;;;10.10;99.90;;;;;;5134832;27;20058;-77
2023/12/19 01:48:26;;;;;;;7.18;3.58;;;10.10;99.90;;;;;;5134811;27;20027;-77
2023/12/19 01:50:52;;;;;;;5.53;3.40;;;10.00;99.90;;;;;;5133982;27;20027;-77
2023/12/19 01:53:19;;;;;;;3.78;3.35;;;10.10;99.90;;;;;;5116348;27;20031;-79
2023/12/19 01:55:47;;;;;;;5.72;3.63;;;10.10;99.90;;;;;;5134245;27;20064;-78
2023/12/19 01:58:14;;;;;;;3.97;3.00;;;10.10;99.90;;;;;;5134254;27;20029;-78
2023/12/19 02:00:40;;;;;;;4.50;3.13;;;10.00;99.90;;;;;;5133921;27;20035;-78
2023/12/19 02:03:06;;;;;;;5.85;3.72;;;10.10;99.90;;;;;;5115790;27;20031;-77
2023/12/19 02:05:36;;;;;;;8.35;3.63;;;10.10;99.90;;;;;;5115148;27;20023;-78
2023/12/19 02:08:02;;;;;;;7.18;2.95;;;10.00;99.90;;;;;;5133886;27;20076;-77
2023/12/19 02:10:28;;;;;;;5.07;3.30;;;10.00;99.90;;;;;;5133763;27;20027;-78
2023/12/19 02:12:54;;;;;;;9.05;3.45;;;10.10;99.90;;;;;;5115122;27;20072;-77
2023/12/19 02:15:20;;;;;;;4.72;3.30;;;10.10;99.90;;;;;;5132627;27;20386;-78
2023/12/19 02:17:45;;;;;;;5.85;3.13;;;10.10;99.90;;;;;;5133568;27;20035;-78
2023/12/19 02:20:11;;;;;;;6.45;2.78;;;10.10;99.90;;;;;;5134145;27;20042;-79
2023/12/19 02:22:37;;;;;;;4.25;2.58;;;10.10;99.90;;;;;;5133343;27;20026;-78
2023/12/19 02:25:03;;;;;;;8.25;2.78;;;10.10;99.90;;;;;;5134297;27;20427;-78
2023/12/19 02:27:30;;;;;;;4.95;2.50;;;10.10;99.90;;;;;;5115211;27;20491;-79
2023/12/19 02:29:55;;;;;;;4.93;2.47;;;10.10;99.90;;;;;;5133428;27;20521;-78
2023/12/19 02:32:21;;;;;;;4.45;2.50;;;10.10;99.90;;;;;;5134224;27;20027;-77
2023/12/19 02:34:48;;;;;;;5.55;2.58;;;10.10;99.90;;;;;;5132928;27;20400;-77
2023/12/19 02:37:14;;;;;;;3.08;2.20;;;10.10;99.90;;;;;;5133834;27;20035;-77
2023/12/19 02:39:39;;;;;;;6.70;2.40;;;10.10;99.90;;;;;;5133300;27;20102;-77
2023/12/19 02:42:05;;;;;;;5.97;2.35;;;10.10;99.90;;;;;;5133349;27;20051;-77
2023/12/19 02:44:31;;;;;;;5.40;2.67;;;10.10;99.90;;;;;;5133964;27;20172;-78
2023/12/19 02:46:56;;;;;;;11.60;2.45;;;10.10;99.90;;;;;;5114524;27;20027;-77
2023/12/19 02:49:22;;;;;;;8.43;2.55;;;10.10;99.90;;;;;;5132826;27;20027;-77
2023/12/19 02:51:48;;;;;;;8.48;2.95;;;10.10;99.90;;;;;;5132405;27;20027;-77
2023/12/19 02:54:14;;;;;;;6.20;2.75;;;10.10;99.90;;;;;;5132574;27;20535;-77
2023/12/19 02:56:39;;;;;;;8.85;2.92;;;10.10;99.90;;;;;;5132341;27;20071;-77
2023/12/19 02:59:05;;;;;;;9.60;3.00;;;10.10;99.90;;;;;;5132650;27;20027;-77
2023/12/19 03:01:31;;;;;;;6.85;3.33;;;10.10;99.90;;;;;;5132956;27;20030;-77
2023/12/19 03:03:56;;;;;;;9.30;3.50;;;10.10;99.90;;;;;;5132410;27;20060;-77
2023/12/19 03:06:22;;;;;;;6.07;3.28;;;10.10;99.90;;;;;;5136880;27;20019;-78
2023/12/19 03:08:48;;;;;;;6.38;3.50;;;10.00;99.90;;;;;;5138530;27;20072;-78
2023/12/19 03:11:14;;;;;;;8.02;3.20;;;10.10;99.90;;;;;;5132715;27;20055;-77
2023/12/19 03:13:40;;;;;;;10.55;3.33;;;10.10;99.90;;;;;;5113278;27;20023;-78
2023/12/19 03:16:06;;;;;;;9.85;3.85;;;10.10;99.90;;;;;;5132666;27;20410;-78
2023/12/19 03:18:32;;;;;;;8.80;4.05;;;10.10;99.90;;;;;;5113865;27;20027;-78
2023/12/19 03:20:58;;;;;;;11.75;4.13;;;10.10;99.90;;;;;;5132215;27;20068;-78
2023/12/19 03:23:24;;;;;;;9.10;3.92;;;10.10;99.90;;;;;;5132304;27;20028;-79
2023/12/19 03:25:50;;;;;;;11.88;3.88;;;10.10;99.90;;;;;;5131166;27;20337;-78
2023/12/19 03:28:16;;;;;;;4.30;3.35;;;10.10;99.90;;;;;;5132329;27;20039;-78
2023/12/19 03:30:42;;;;;;;11.93;3.67;;;10.10;99.90;;;;;;5132297;27;20119;-78
2023/12/19 03:33:08;;;;;;;11.05;3.80;;;10.10;99.90;;;;;;5132718;27;20027;-77
2023/12/19 03:35:34;;;;;;;7.43;3.70;;;10.10;99.90;;;;;;5131874;27;20034;-78
2023/12/19 03:38:00;;;;;;;7.90;3.75;;;10.10;99.90;;;;;;5131518;27;20376;-78
2023/12/19 03:40:26;;;;;;;7.60;3.70;;;10.20;99.90;;;;;;5132085;27;20038;-78
2023/12/19 03:42:52;;;;;;;7.82;3.75;;;10.10;99.90;;;;;;5132072;27;20023;-78
2023/12/19 03:45:18;;;;;;;9.20;3.88;;;10.10;99.90;;;;;;5132866;27;20042;-78
2023/12/19 03:47:43;;;;;;;10.23;3.92;;;10.10;99.90;;;;;;5132506;27;20043;-77
2023/12/19 03:50:09;;;;;;;9.13;3.83;;;10.10;99.90;;;;;;5113909;27;20328;-78
2023/12/19 03:52:35;;;;;;;9.48;3.80;;;10.10;99.90;;;;;;5131934;27;20019;-79
2023/12/19 03:55:02;;;;;;;5.15;3.50;;;10.10;99.90;;;;;;5131908;27;20051;-79
2023/12/19 03:57:28;;;;;;;5.63;3.35;;;10.00;99.90;;;;;;5132090;27;20108;-78
2023/12/19 03:59:54;;;;;;;5.90;2.90;;;10.00;99.90;;;;;;5131209;27;20051;-78
2023/12/19 04:02:20;;;;;;;5.47;2.50;;;9.90;99.90;;;;;;5113572;27;20034;-78
2023/12/19 04:04:46;;;;;;;3.47;2.40;;;9.80;99.90;;;;;;5131631;27;20054;-78
2023/12/19 04:07:11;;;;;;;5.07;2.28;;;9.80;99.90;;;;;;5096944;27;20027;-78
2023/12/19 04:09:37;;;;;;;5.22;2.42;;;9.70;99.90;;;;;;5131461;27;20023;-79
2023/12/19 04:12:03;;;;;;;5.93;2.28;;;9.70;99.90;;;;;;5113166;27;20035;-78
2023/12/19 04:14:35;;;;;;;3.28;1.70;;;9.60;99.90;;;;;;5132108;27;20030;-78
2023/12/19 04:17:01;;;;;;;4.22;1.80;;;9.60;99.90;;;;;;5132015;27;20035;-78
2023/12/19 04:19:27;;;;;;;2.05;1.58;;;9.50;99.90;;;;;;5131758;27;20507;-79
2023/12/19 04:21:53;;;;;;;4.22;1.40;;;9.50;99.90;;;;;;5113137;28;20023;-79
2023/12/19 04:24:19;;;;;;;4.15;1.80;;;9.50;99.90;;;;;;5131897;27;20084;-79
2023/12/19 04:26:49;;;;;;;3.47;1.90;;;9.40;99.90;;;;;;5131161;28;20035;-79
2023/12/19 04:29:14;;;;;;;1.88;1.30;;;9.40;99.90;;;;;;5131807;28;20023;-79
2023/12/19 04:31:41;;;;;;;3.17;1.25;;;9.40;99.90;;;;;;5112954;28;20025;-78
2023/12/19 04:34:07;;;;;;;2.72;1.10;;;9.40;99.90;;;;;;5131339;28;20529;-79
2023/12/19 04:36:33;;;;;;;4.93;1.48;;;9.30;99.90;;;;;;5131408;28;20039;-78
2023/12/19 04:38:59;;;;;;;2.90;1.08;;;9.20;99.90;;;;;;5133218;27;20106;-79
2023/12/19 04:41:24;;;;;;;2.03;1.20;;;9.30;99.90;;;;;;5135957;27;20027;-79
2023/12/19 04:43:50;;;;;;;4.30;1.45;;;9.20;99.90;;;;;;5137140;27;20031;-78
2023/12/19 04:46:16;;;;;;;1.88;0.90;;;9.20;99.90;;;;;;5143354;27;20024;-78
2023/12/19 04:48:42;;;;;;;1.33;0.80;;;9.10;99.90;;;;;;5143518;27;20031;-79
2023/12/19 04:51:18;;;;;;;1.75;0.65;;;9.10;99.90;;;;;;5144971;27;20023;-78
2023/12/19 04:53:45;;;;;;;3.05;0.80;;;9.10;99.90;;;;;;5143376;27;20027;-79
2023/12/19 04:56:11;;;;;;;1.20;0.60;;;9.00;99.90;;;;;;5141734;27;20107;-78
2023/12/19 04:58:38;;;;;;;1.05;0.77;;;9.00;99.90;;;;;;5142663;27;20023;-79
2023/12/19 05:01:03;;;;;;;1.90;0.60;;;8.90;99.90;;;;;;5136980;27;20044;-79
2023/12/19 05:03:29;;;;;;;4.72;0.95;;;8.90;99.90;;;;;;5142083;27;20038;-79
2023/12/19 05:05:55;;;;;;;5.43;0.80;;;8.80;99.90;;;;;;5118880;27;20460;-78
2023/12/19 05:08:20;;;;;;;1.23;0.60;;;8.80;99.90;;;;;;5135341;27;20098;-79
2023/12/19 05:10:46;;;;;;;3.50;0.70;;;8.80;99.90;;;;;;5115883;27;20020;-78
2023/12/19 05:13:12;;;;;;;4.97;0.70;;;8.70;99.90;;;;;;5134738;27;20038;-78
2023/12/19 05:15:38;;;;;;;7.47;1.02;;;8.60;99.90;;;;;;5117022;27;20027;-78
2023/12/19 05:18:04;;;;;;;6.43;1.35;;;8.60;99.90;;;;;;5134573;27;20329;-78
2023/12/19 05:20:30;;;;;;;5.22;1.10;;;8.50;99.90;;;;;;5116056;27;20025;-79
2023/12/19 05:22:55;;;;;;;3.55;0.68;;;8.50;99.90;;;;;;5115728;27;20031;-78
2023/12/19 05:25:21;;;;;;;4.07;0.93;;;8.50;99.90;;;;;;5134525;27;20313;-78
2023/12/19 05:27:47;;;;;;;7.28;1.38;;;8.40;99.90;;;;;;5136370;27;20070;-80
2023/12/19 05:30:13;;;;;;;4.32;1.23;;;8.40;99.90;;;;;;5141852;27;20031;-78
2023/12/19 05:32:39;;;;;;;3.75;1.00;;;8.40;99.90;;;;;;5138388;27;20111;-78
2023/12/19 05:35:06;;;;;;;3.10;1.08;;;8.40;99.90;;;;;;5134895;27;20111;-79
2023/12/19 05:37:31;;;;;;;4.85;0.90;;;8.40;99.90;;;;;;5135530;27;20087;-78
2023/12/19 05:39:57;;;;;;;5.40;1.08;;;8.50;99.90;;;;;;5133865;27;20027;-78
2023/12/19 05:42:24;;;;;;;3.58;0.70;;;8.50;99.90;;;;;;5134398;27;20464;-78
2023/12/19 05:44:49;;;;;;;4.40;0.98;;;8.60;99.90;;;;;;5115332;27;20056;-78
2023/12/19 05:47:15;;;;;;;4.00;0.75;;;8.50;99.90;;;;;;5134587;27;20062;-79
2023/12/19 05:49:41;;;;;;;6.00;0.90;;;8.50;99.90;;;;;;5133984;27;20360;-79
2023/12/19 05:52:07;;;;;;;11.45;1.30;;;8.50;99.90;;;;;;5133788;27;20357;-78
2023/12/19 05:54:33;;;;;;;4.47;1.10;;;8.60;99.90;;;;;;5115817;27;20061;-79
2023/12/19 05:56:59;;;;;;;3.55;0.90;;;8.60;99.90;;;;;;5133605;27;20074;-79
2023/12/19 05:59:25;;;;;;;5.50;1.02;;;8.50;99.90;;;;;;5134274;27;20521;-79
2023/12/19 06:01:50;;;;;;;3.70;1.13;;;8.50;99.90;;;;;;5133817;27;20023;-79
2023/12/19 06:04:16;;;;;;;5.30;1.02;;;8.50;99.90;;;;;;5133897;27;20106;-79
2023/12/19 06:06:44;;;;;;;8.73;1.27;;;8.50;99.90;;;;;;5134248;27;20060;-78
2023/12/19 06:09:12;;;;;;;6.97;1.17;;;8.50;99.90;;;;;;5133964;27;20019;-79
2023/12/19 06:11:38;;;;;;;7.93;1.52;;;8.50;99.90;;;;;;5134635;27;20023;-79
2023/12/19 06:14:05;;;;;;;6.70;1.20;;;8.50;99.90;;;;;;5133598;27;20138;-78
2023/12/19 06:16:31;;;;;;;10.07;1.55;;;8.50;99.90;;;;;;5134085;27;20027;-79
2023/12/19 06:18:57;;;;;;;3.42;1.02;;;8.50;99.90;;;;;;5133572;27;20046;-79
2023/12/19 06:21:23;;;;;;;4.70;1.10;;;8.50;99.90;;;;;;5133707;27;20058;-79
2023/12/19 06:23:49;;;;;;;7.68;1.83;;;8.60;99.90;;;;;;5133586;27;20031;-79
2023/12/19 06:26:33;;;;;;;5.25;1.30;;;8.50;99.90;;;;;;5134010;27;20036;-80
2023/12/19 06:29:00;;;;;;;3.63;0.95;;;8.50;99.90;;;;;;5133212;27;20460;-80
2023/12/19 06:31:25;;;;;;;5.50;1.20;;;8.50;99.90;;;;;;5133903;27;20030;-79
2023/12/19 06:33:51;;;;;;;5.07;1.38;;;8.50;99.90;;;;;;5132759;27;20035;-79
2023/12/19 06:36:33;;;;;;;4.70;1.27;;;8.50;99.90;;;;;;5134042;27;20394;-78
2023/12/19 06:39:00;;;;;;;8.07;1.42;;;8.50;99.90;;;;;;5133664;27;20025;-79
2023/12/19 06:41:25;;;;;;;8.55;1.80;;;8.50;99.90;;;;;;5133636;27;20096;-79
2023/12/19 06:43:51;;;;;;;7.90;1.70;;;8.50;99.90;;;;;;5134214;27;20023;-78
2023/12/19 06:46:17;;;;;;;9.68;1.75;;;8.60;99.90;;;;;;5115915;27;20197;-79
2023/12/19 06:48:44;;;;;;;5.95;1.40;;;8.50;99.90;;;;;;5134397;27;20046;-79
2023/12/19 06:51:10;;;;;;;7.25;1.33;;;8.50;99.90;;;;;;5134096;27;20019;-78
2023/12/19 06:53:38;;;;;;;8.18;2.50;;;8.60;99.90;;;;;;5134435;27;20046;-78
2023/12/19 06:56:04;;;;;;;5.15;1.00;;;8.60;99.90;;;;;;5133941;27;20549;-79
2023/12/19 06:58:31;;;;;;;8.25;1.30;;;8.50;99.90;;;;;;5134928;27;20026;-80
2023/12/19 07:00:57;;;;;;;6.15;1.58;;;8.50;99.90;;;;;;5133274;27;20050;-79
2023/12/19 07:03:23;;;;;;;10.05;1.38;;;8.40;99.90;;;;;;5134289;27;20023;-79
2023/12/19 07:05:51;;;;;;;6.38;1.13;;;8.40;99.90;;;;;;5134295;27;20027;-79
2023/12/19 07:08:17;;;;;;;6.93;1.40;;;8.30;99.90;;;;;;5133754;27;20026;-79
2023/12/19 07:10:43;;;;;;;7.50;1.55;;;8.40;99.90;;;;;;5133707;27;20055;-79
2023/12/19 07:13:08;;;;;;;5.47;1.10;;;8.30;99.90;;;;;;5115632;27;20030;-79
2023/12/19 07:15:34;;;;;;;5.10;1.50;;;8.30;99.90;;;;;;5133528;27;20054;-79
2023/12/19 07:18:00;;;;;;;8.60;1.58;;;8.30;99.90;;;;;;5132782;27;20055;-79
2023/12/19 07:20:26;;;;;;;7.50;1.90;;;8.30;99.90;;;;;;5114474;27;20110;-79
2023/12/19 07:22:52;;;;;;;6.75;1.30;;;8.20;99.90;;;;;;5114303;27;20409;-78
2023/12/19 07:25:17;;;;;;;9.20;1.60;;;8.20;99.90;;;;;;5114730;27;20034;-79
2023/12/19 07:27:44;;;;;;;7.60;1.65;;;8.20;99.90;;;;;;5133108;27;20053;-78
2023/12/19 07:30:11;;;;;;;7.75;1.65;;;8.20;99.90;;;;;;5114502;27;20687;-79
2023/12/19 07:32:37;;;;;;;7.80;1.77;;;8.20;99.90;;;;;;5133026;27;20023;-79
2023/12/19 07:35:04;;;;;;;7.07;1.73;;;8.10;99.90;;;;;;5133016;27;20119;-79
2023/12/19 07:37:30;;;;;;;7.68;1.50;;;8.10;99.90;;;;;;5132892;27;20024;-80
2023/12/19 07:39:56;;;;;;;7.45;1.58;;;8.10;99.90;;;;;;5132414;27;20024;-79
2023/12/19 07:42:22;;;;;;;15.00;1.92;;;8.00;99.90;;;;;;5133129;27;20456;-79
2023/12/19 07:44:48;;;;;;;9.75;1.52;;;8.00;99.90;;;;;;5133429;27;20068;-77
2023/12/19 07:47:14;;;;;;;10.48;2.47;;;8.00;99.90;;;;;;5132096;27;20027;-78
2023/12/19 07:49:39;;;;;;;4.57;1.50;;;8.00;99.90;;;;;;5132823;27;20479;-78
2023/12/19 07:52:05;;;;;;;11.57;2.20;;;8.00;99.90;;;;;;5131694;27;20031;-78
2023/12/19 07:54:31;;;;;;;10.38;1.95;;;8.00;99.90;;;;;;5132173;27;20050;-79
2023/12/19 07:56:58;;;;;;;7.57;1.63;;;7.90;99.90;;;;;;5131624;27;20034;-78
2023/12/19 07:59:23;;;;;;;9.55;2.17;;;7.90;99.90;;;;;;5132478;27;20039;-79
2023/12/19 08:01:49;;;;;;;7.35;1.80;;;7.90;99.90;;;;;;5132514;27;20023;-79
2023/12/19 08:04:15;;;;;;;9.13;1.70;;;7.80;99.90;;;;;;5132316;27;20095;-78
2023/12/19 08:06:41;;;;;;;7.20;1.58;;;7.80;99.90;;;;;;5132455;27;20025;-78
2023/12/19 08:09:10;;;;;;;11.82;2.28;;;7.90;99.90;;;;;;5131254;27;20072;-78
2023/12/19 08:11:36;;;;;;;16.15;1.77;;;7.90;99.90;;;;;;5132023;27;20030;-79
2023/12/19 08:14:02;;;;;;;8.57;2.08;;;7.80;99.90;;;;;;5130480;27;20104;-78
2023/12/19 08:16:27;;;;;;;8.00;2.25;;;7.80;99.90;;;;;;5114951;27;20452;-78
2023/12/19 08:18:53;;;;;;;12.60;1.52;;;7.80;99.90;;;;;;5139533;27;20025;-79
2023/12/19 08:21:19;;;;;;;11.95;2.33;;;7.70;99.90;;;;;;5147990;27;20020;-80
2023/12/19 08:23:47;;;;;;;11.23;1.63;;;7.80;99.90;;;;;;5135080;27;20050;-79
2023/12/19 08:26:12;;;;;;;7.97;1.98;;;7.70;99.90;;;;;;5137313;27;20023;-78
2023/12/19 08:28:38;;;;;;;8.80;2.03;;;7.70;99.90;;;;;;5124171;28;20031;-80
2023/12/19 08:31:04;;;;;;;7.45;2.15;;;7.60;99.90;;;;;;5124689;28;20043;-79
2023/12/19 08:33:30;;;;;;;9.32;2.05;;;7.50;99.90;;;;;;5135375;28;20031;-77
2023/12/19 08:35:55;;;;;;;11.02;1.77;;;7.50;99.90;;;;;;5132406;28;20473;-79
2023/12/19 08:38:21;;;;;;;7.68;1.60;;;7.40;99.90;;;;;;5132332;28;20038;-79
2023/12/19 08:40:47;;;;;;;12.82;2.60;;;7.40;99.90;;;;;;5131959;28;20110;-79
2023/12/19 08:43:12;;;;;;;12.82;1.98;;;7.40;99.90;;;;;;5131139;28;20030;-77
2023/12/19 08:45:38;;;;;;;8.95;1.73;;;7.30;99.90;;;;;;5131606;28;20031;-78
2023/12/19 08:48:04;;;;;;;10.75;2.35;;;7.30;99.90;;;;;;5134415;28;20027;-77
2023/12/19 08:50:31;;;;;;;7.97;2.13;;;7.20;99.90;;;;;;5139981;28;20351;-78
2023/12/19 08:52:56;;;;;;;8.73;2.20;;;7.20;99.90;;;;;;5133789;28;20027;-78
2023/12/19 08:55:22;;;;;;;10.15;2.17;;;7.20;99.90;;;;;;5131831;28;20034;-77
2023/12/19 08:57:51;;;;;;;10.52;2.03;;;7.20;99.90;;;;;;5132355;28;20027;-78
2023/12/19 09:00:18;;;;;;;9.13;2.03;;;7.20;99.90;;;;;;5130932;28;20043;-79
2023/12/19 09:02:44;;;;;;;16.73;2.50;;;7.20;99.90;;;;;;5131502;28;20383;-79
2023/12/19 09:05:17;;;;;;;14.50;2.90;;;7.10;99.90;;;;;;5112063;28;20038;-79
2023/12/19 09:07:44;;;;;;;;;;;7.10;99.90;;;;;;5131715;28;20410;-78
2023/12/19 09:10:11;;;;;;;10.40;2.03;;;7.10;99.90;;;;;;5130461;28;19944;-78
2023/12/19 09:12:37;;;;;;;6.43;1.92;;;7.10;99.90;;;;;;5130660;28;20422;-78
2023/12/19 09:15:05;;;;;;;12.32;2.20;;;7.00;99.90;;;;;;5130333;28;20076;-79
2023/12/19 09:17:31;;;;;;;5.35;1.88;;;7.00;99.90;;;;;;5130985;28;20038;-77
2023/12/19 09:19:57;;;;;;;8.82;1.83;;;7.00;99.90;;;;;;5130341;28;20023;-78
2023/12/19 09:22:23;;;;;;;17.10;2.13;;;6.90;99.90;;;;;;5130910;28;20034;-78
2023/12/19 09:24:49;;;;;;;12.25;2.05;;;6.90;99.90;;;;;;5132510;27;20438;-78
2023/12/19 09:27:16;;;;;;;13.50;2.85;;;6.80;99.90;;;;;;5098859;27;20030;-79
2023/12/19 09:29:41;;;;;;;10.10;1.90;;;6.80;99.90;;;;;;5135185;27;20046;-79
2023/12/19 09:32:07;;;;;;;6.70;1.70;;;6.80;99.90;;;;;;5115606;27;20429;-80
2023/12/19 09:34:34;;;;;;;9.32;1.98;;;6.80;99.90;;;;;;5134888;27;20049;-78
2023/12/19 09:36:59;;;;;;;10.02;2.08;;;6.80;99.90;;;;;;5116059;27;20054;-79
2023/12/19 09:39:25;;;;;;;9.57;2.10;;;6.70;99.90;;;;;;5134717;27;20080;-78
2023/12/19 09:41:51;;;;;;;11.07;2.20;;;6.80;99.90;;;;;;5134442;27;20023;-79
2023/12/19 09:44:17;;;;;;;9.40;1.98;;;6.70;99.90;;;;;;5115550;27;20023;-79
2023/12/19 09:46:50;;;;;;;8.93;2.15;;;6.70;99.90;;;;;;5134696;27;20539;-79
2023/12/19 09:49:21;;;;;;;13.85;2.03;;;6.80;99.90;;;;;;5133790;27;20034;-78
2023/12/19 09:51:51;;;;;;;10.32;2.20;;;6.80;99.90;;;;;;5134355;27;20118;-79
2023/12/19 09:54:22;;;;;;;9.48;2.53;;;6.80;99.90;;;;;;5133430;27;20031;-78
2023/12/19 09:56:49;;;;;;;10.45;2.13;;;6.80;99.90;;;;;;5134438;27;20081;-79
2023/12/19 09:59:18;;;;;;;15.50;3.00;;;6.90;99.90;;;;;;5133567;27;20042;-78
2023/12/19 10:01:44;;;;;;;10.88;2.63;;;6.90;99.90;;;;;;5134289;27;20023;-78
2023/12/19 10:04:13;;;;;;;7.90;2.22;;;7.00;99.90;;;;;;5133533;27;20028;-78
2023/12/19 10:06:54;;;;;;;11.60;2.78;;;7.00;99.90;;;;;;5115987;27;20039;-78
2023/12/19 10:09:21;;;;;;;11.73;2.08;;;7.00;99.90;;;;;;5133954;27;20223;-78
2023/12/19 10:12:01;;;;;;;9.30;2.17;;;7.00;99.90;;;;;;5134245;27;20027;-78
2023/12/19 10:14:26;;;;;;;9.90;2.20;;;7.00;99.90;;;;;;5133697;27;20027;-79
2023/12/19 10:16:53;;;;;;;12.13;2.25;;;7.00;99.90;;;;;;5135106;27;20030;-79
2023/12/19 10:19:28;;;;;;;7.38;2.20;;;7.10;99.90;;;;;;5134494;27;20075;-79
2023/12/19 10:22:08;;;;;;;10.85;2.03;;;7.10;99.90;;;;;;5135265;27;20027;-78
2023/12/19 10:24:34;;;;;;;9.07;1.95;;;7.10;99.90;;;;;;5134737;27;20034;-79
2023/12/19 10:27:01;;;;;;;14.07;2.53;;;7.10;99.90;;;;;;5134956;27;20025;-79
2023/12/19 10:29:28;;;;;;;11.82;2.38;;;7.10;99.90;;;;;;5134335;27;20121;-78
2023/12/19 10:31:54;;;;;;;9.63;2.72;;;7.10;99.90;;;;;;5134663;27;20110;-78
2023/12/19 10:34:22;;;;;;;9.02;2.45;;;7.10;99.90;;;;;;5133985;27;20080;-78
2023/12/19 10:36:48;;;;;;;9.57;2.72;;;7.10;99.90;;;;;;5133828;27;20076;-78
2023/12/19 10:39:18;;;;;;;8.40;2.20;;;7.20;99.90;;;;;;5134124;27;20023;-78
2023/12/19 10:41:44;;;;;;;10.40;2.88;;;7.20;99.90;;;;;;5134705;27;20026;-79
2023/12/19 10:44:12;;;;;;;12.90;2.50;;;7.20;99.90;;;;;;5115678;27;20023;-79
2023/12/19 10:46:38;;;;;;;11.00;2.20;;;7.20;99.90;;;;;;5134886;27;20038;-79
2023/12/19 10:49:04;;;;;;;8.05;2.38;;;7.30;99.90;;;;;;5133675;27;20023;-79
2023/12/19 10:51:42;;;;;;;15.80;2.40;;;7.30;99.90;;;;;;5115823;27;20027;-78
2023/12/19 10:54:12;;;;;;;12.43;2.83;;;7.30;99.90;;;;;;5133798;27;20121;-79
2023/12/19 10:56:51;;;;;;;14.43;3.00;;;7.30;99.90;;;;;;5133726;27;20062;-78
2023/12/19 10:59:29;;;;;;;12.48;2.20;;;7.30;99.90;;;;;;5132067;27;20027;-80
2023/12/19 11:02:00;;;;;;;12.10;2.20;;;7.30;99.90;;;;;;5133016;27;20030;-78
2023/12/19 11:04:31;;;;;;;9.70;2.43;;;7.40;99.90;;;;;;5132479;27;20391;-79
2023/12/19 11:07:02;;;;;;;11.20;2.40;;;7.40;99.90;;;;;;5114537;27;20026;-79
2023/12/19 11:09:33;;;;;;;12.07;2.28;;;7.40;99.90;;;;;;5132137;27;20464;-79
2023/12/19 11:12:00;;;;;;;9.98;2.50;;;7.40;99.90;;;;;;5114445;27;20027;-79
2023/12/19 11:14:26;;;;;;;11.43;2.15;;;7.50;99.90;;;;;;5132159;27;20094;-78
2023/12/19 11:16:58;;;;;;;12.48;2.78;;;7.50;99.90;;;;;;5132854;27;20054;-79
2023/12/19 11:19:24;;;;;;;16.23;2.97;;;7.50;99.90;;;;;;5132371;27;20153;-79
2023/12/19 11:22:17;;;;;;;11.07;2.40;;;7.60;99.90;;;;;;5132955;27;20464;-79
2023/12/19 11:24:50;;;;;;;;;;;7.60;99.90;;;;;;5133332;27;20141;-80
2023/12/19 11:27:21;;;;;;;12.25;2.10;;;7.60;99.90;;;;;;5132555;27;19903;-79
2023/12/19 11:29:53;;;;;;;9.88;1.77;;;7.60;99.90;;;;;;5132540;27;20122;-79
2023/12/19 11:32:31;;;;;;;11.82;2.60;;;7.60;99.90;;;;;;5131260;27;20031;-79
2023/12/19 11:35:11;;;;;;;10.93;2.20;;;7.70;99.90;;;;;;5113881;27;20035;-79
2023/12/19 11:37:38;;;;;;;10.32;2.00;;;7.80;99.90;;;;;;5132075;27;20439;-79
2023/12/19 11:40:05;;;;;;;10.02;2.65;;;7.80;99.90;;;;;;5131730;27;20051;-77
2023/12/19 11:42:40;;;;;;;14.15;2.60;;;7.80;99.90;;;;;;5131816;27;20091;-77
2023/12/19 11:45:18;;;;;;;7.25;1.90;;;7.90;99.90;;;;;;5132302;27;20192;-78
2023/12/19 11:47:48;;;;;;;14.55;2.75;;;7.90;99.90;;;;;;5131411;27;20023;-78
2023/12/19 11:50:39;;;;;;;10.13;1.95;;;8.00;99.90;;;;;;5111701;27;20039;-78
2023/12/19 11:53:05;;;;;;;7.35;1.80;;;8.00;99.90;;;;;;5131805;27;20057;-78
2023/12/19 11:55:31;;;;;;;11.77;2.17;;;8.10;99.90;;;;;;5131179;27;20037;-78
2023/12/19 11:58:10;;;;;;;5.82;1.92;;;8.20;99.90;;;;;;5131800;27;20027;-77
2023/12/19 12:00:36;;;;;;;7.60;2.20;;;8.30;99.90;;;;;;5131533;27;20050;-78
2023/12/19 12:03:12;;;;;;;12.13;2.33;;;8.30;99.90;;;;;;5131589;27;20117;-78
2023/12/19 12:05:38;;;;;;;9.10;2.30;;;8.30;99.90;;;;;;5131238;27;20110;-78
2023/12/19 12:08:04;;;;;;;7.47;1.77;;;8.30;99.90;;;;;;5133639;27;20055;-76
2023/12/19 12:10:31;;;;;;;11.25;2.42;;;8.30;99.90;;;;;;5133510;27;20027;-78
2023/12/19 12:12:59;;;;;;;6.80;1.88;;;8.20;99.90;;;;;;5132101;27;20043;-78
2023/12/19 12:15:26;;;;;;;11.80;2.28;;;8.20;99.90;;;;;;5131207;27;20035;-79
2023/12/19 12:18:02;;;;;;;12.73;2.45;;;8.10;99.90;;;;;;5132193;27;20023;-79
2023/12/19 12:20:32;;;;;;;5.57;2.00;;;8.10;99.90;;;;;;5131477;27;20153;-78
2023/12/19 12:22:58;;;;;;;10.50;3.53;;;8.10;99.90;;;;;;5132231;27;20193;-79
2023/12/19 12:25:24;;;;;;;11.43;2.90;;;8.10;99.90;;;;;;5113471;27;20042;-79
2023/12/19 12:27:55;;;;;;;12.55;3.65;;;8.10;99.90;;;;;;5132642;27;20091;-79
2023/12/19 12:30:24;;;;;;;10.18;2.53;;;8.20;99.90;;;;;;5113093;28;20028;-79
2023/12/19 12:32:51;;;;;;;11.82;2.67;;;8.10;99.90;;;;;;5113680;28;20329;-78
2023/12/19 12:35:38;;;;;;;9.93;2.47;;;8.20;99.90;;;;;;5113541;28;20448;-79
2023/12/19 12:38:16;;;;;;;5.95;1.92;;;8.20;99.90;;;;;;5132705;28;20128;-78
2023/12/19 12:40:59;;;;;;;9.75;2.22;;;8.20;99.90;;;;;;5132320;28;20402;-78
2023/12/19 12:43:41;;;;;;;11.45;2.33;;;8.20;99.90;;;;;;5131451;28;20027;-78
2023/12/19 12:46:14;;;;;;;9.90;2.83;;;8.30;99.90;;;;;;5131967;28;20030;-78
2023/12/19 12:48:41;;;;;;;10.23;2.47;;;8.30;99.90;;;;;;5131379;28;20506;-79
2023/12/19 12:51:07;;;;;;;9.45;2.17;;;8.40;99.90;;;;;;5131544;28;20023;-79